EYKS weather

S. Darius and S. Gir─Śnas Airport
Kaunas, Kaunas County, Lithuania

Public forecast

Using degrees Celsius for public forecast. Weather courtesy of forecast.io.

METAR (pilot weather report)

Closest report is Kaunas International Airport, 8.6 nm (16.0 km) NE. Retrieved 2018/12/13 02:20 UTC (0 seconds ago):

EYKA 130220Z 02008KT 340V070 9999 OVC006 M00/M01 Q1023

TAF (pilot weather forecast)

Forecast is more than 12 hours old.

Closest forecast is Kaunas International Airport, 8.6 nm (16.0 km) NE. Retrieved 2018/12/12 12:15 UTC (14 hours ago):

TAF TAF EYKA 121110Z 1212/1312 03010KT 5000 -SN BR OVC005 TEMPO 1212/1220 1500 BKN002 BECMG 1220/1221 9000 OVC010 TEMPO 1300/1312 3000 -SN BR BKN005